createdAt,value
2023-01-07T00:00:39.848Z,26.63
2023-01-07T00:01:39.769Z,26.71
2023-01-07T00:02:39.787Z,26.77
2023-01-07T00:03:39.774Z,26.59
2023-01-07T00:04:39.688Z,26.57
2023-01-07T00:05:39.738Z,26.59
2023-01-07T00:06:39.704Z,26.70
2023-01-07T00:07:39.628Z,26.76
2023-01-07T00:08:39.595Z,26.74
2023-01-07T00:09:39.566Z,26.54
2023-01-07T00:10:39.569Z,26.55
2023-01-07T00:11:39.517Z,26.57
2023-01-07T00:12:39.485Z,26.71
2023-01-07T00:13:39.456Z,26.76
2023-01-07T00:14:39.432Z,26.64
2023-01-07T00:15:39.428Z,26.56
2023-01-07T00:16:39.387Z,26.55
2023-01-07T00:17:39.361Z,26.62
2023-01-07T00:18:39.343Z,26.66
2023-01-07T00:19:39.305Z,26.71
2023-01-07T00:20:39.283Z,26.54
2023-01-07T00:21:39.347Z,26.52
2023-01-07T00:22:39.245Z,26.50
2023-01-07T00:23:39.222Z,26.66
2023-01-07T00:24:39.212Z,26.71
2023-01-07T00:25:39.175Z,26.65
2023-01-07T00:26:39.183Z,26.55
2023-01-07T00:27:39.143Z,26.51
2023-01-07T00:28:39.127Z,26.59
2023-01-07T00:29:39.101Z,26.66
2023-01-07T00:30:39.081Z,26.71
2023-01-07T00:31:39.132Z,26.53
2023-01-07T00:33:39.013Z,26.59
2023-01-07T00:34:39.027Z,26.69
2023-01-07T00:35:38.968Z,26.71
2023-01-07T00:36:38.943Z,26.72
2023-01-07T00:37:39.006Z,26.52
2023-01-07T00:38:38.895Z,26.48
2023-01-07T00:39:40.606Z,26.53
2023-01-07T00:40:38.841Z,26.59
2023-01-07T00:41:38.815Z,26.70
2023-01-07T00:42:38.803Z,26.51
2023-01-07T00:43:38.763Z,26.44
2023-01-07T00:44:38.738Z,26.45
2023-01-07T00:45:38.709Z,26.54
2023-01-07T00:46:38.692Z,26.64
2023-01-07T00:47:38.652Z,26.65
2023-01-07T00:48:38.636Z,26.45
2023-01-07T00:49:38.602Z,26.46
2023-01-07T00:50:38.585Z,26.52
2023-01-07T00:51:38.564Z,26.63
2023-01-07T00:52:38.539Z,26.67
2023-01-07T00:53:38.613Z,26.58
2023-01-07T00:54:38.500Z,26.43
2023-01-07T00:55:38.484Z,26.46
2023-01-07T00:56:38.468Z,26.56
2023-01-07T00:57:38.454Z,26.66
2023-01-07T00:58:38.446Z,26.63
2023-01-07T00:59:38.432Z,26.49
2023-01-07T01:00:38.448Z,26.48
2023-01-07T01:01:38.587Z,26.50
2023-01-07T01:02:38.391Z,26.55
2023-01-07T01:03:38.402Z,26.66
2023-01-07T01:04:38.339Z,26.53
2023-01-07T01:05:38.313Z,26.44
2023-01-07T01:06:38.300Z,26.47
2023-01-07T01:07:38.278Z,26.57
2023-01-07T01:08:38.285Z,26.65
2023-01-07T01:09:38.364Z,26.66
2023-01-07T01:11:01.203Z,26.44
2023-01-07T01:11:38.243Z,26.52
2023-01-07T01:12:38.206Z,26.52
2023-01-07T01:13:38.191Z,26.63
2023-01-07T01:14:38.171Z,26.67
2023-01-07T01:15:38.146Z,26.57
2023-01-07T01:16:38.185Z,26.45
2023-01-07T01:17:38.190Z,26.48
2023-01-07T01:18:38.108Z,26.55
2023-01-07T01:19:38.086Z,26.63
2023-01-07T01:20:38.056Z,26.65
2023-01-07T01:21:38.063Z,26.49
2023-01-07T01:22:38.026Z,26.48
2023-01-07T01:23:38.032Z,26.54
2023-01-07T01:24:37.988Z,26.56
2023-01-07T01:25:38.068Z,26.66
2023-01-07T01:26:37.969Z,26.55
2023-01-07T01:27:37.951Z,26.41
2023-01-07T01:28:37.933Z,26.45
2023-01-07T01:29:37.922Z,26.53
2023-01-07T01:30:37.905Z,26.65
2023-01-07T01:31:37.912Z,26.68
2023-01-07T01:32:37.857Z,26.51
2023-01-07T01:33:37.864Z,26.48
2023-01-07T01:34:37.815Z,26.47
2023-01-07T01:35:37.801Z,26.56
2023-01-07T01:36:37.786Z,26.63
2023-01-07T01:37:37.765Z,26.57
2023-01-07T01:38:37.747Z,26.44
2023-01-07T01:39:37.733Z,26.43
2023-01-07T01:40:37.712Z,26.49
2023-01-07T01:41:37.799Z,26.60
2023-01-07T01:42:37.689Z,26.65
2023-01-07T01:43:37.688Z,26.46
2023-01-07T01:44:37.668Z,26.40
2023-01-07T01:45:37.639Z,26.42
2023-01-07T01:46:37.705Z,26.50
2023-01-07T01:47:37.616Z,26.63
2023-01-07T01:48:37.586Z,26.54
2023-01-07T01:49:37.579Z,26.39
2023-01-07T01:50:37.547Z,26.40
2023-01-07T01:51:37.538Z,26.47
2023-01-07T01:52:37.516Z,26.60
2023-01-07T01:53:37.495Z,26.61
2023-01-07T01:54:37.481Z,26.52
2023-01-07T01:55:37.450Z,26.40
2023-01-07T01:56:37.426Z,26.37
2023-01-07T01:57:37.500Z,26.46
2023-01-07T01:58:37.397Z,26.58
2023-01-07T01:59:37.376Z,26.54
2023-01-07T02:00:37.405Z,26.40
2023-01-07T02:01:37.537Z,26.37
2023-01-07T02:02:37.348Z,26.42
2023-01-07T02:03:37.300Z,26.58
2023-01-07T02:04:37.283Z,26.61
2023-01-07T02:05:39.827Z,26.42
2023-01-07T02:06:37.234Z,26.35
2023-01-07T02:07:37.218Z,26.39
2023-01-07T02:08:37.216Z,26.49
2023-01-07T02:09:37.191Z,26.55
2023-01-07T02:10:37.164Z,26.54
2023-01-07T02:11:37.149Z,26.38
2023-01-07T02:12:37.133Z,26.39
2023-01-07T02:13:37.210Z,26.40
2023-01-07T02:14:37.110Z,26.48
2023-01-07T02:15:37.096Z,26.56
2023-01-07T02:16:37.117Z,26.48
2023-01-07T02:17:37.059Z,26.37
2023-01-07T02:18:37.039Z,26.39
2023-01-07T02:19:37.033Z,26.46
2023-01-07T02:20:37.004Z,26.50
2023-01-07T02:21:36.998Z,26.55
2023-01-07T02:22:36.960Z,26.42
2023-01-07T02:23:36.965Z,26.35
2023-01-07T02:24:36.921Z,26.37
2023-01-07T02:25:36.901Z,26.40
2023-01-07T02:26:36.906Z,26.50
2023-01-07T02:27:36.856Z,26.43
2023-01-07T02:28:36.846Z,26.34
2023-01-07T02:29:36.828Z,26.35
2023-01-07T02:30:36.798Z,26.39
2023-01-07T02:31:36.866Z,26.53
2023-01-07T02:32:36.773Z,26.51
2023-01-07T02:33:36.759Z,26.35
2023-01-07T02:34:36.737Z,26.32
2023-01-07T02:35:36.718Z,26.35
2023-01-07T02:36:36.707Z,26.47
2023-01-07T02:37:36.700Z,26.49
2023-01-07T02:38:36.665Z,26.43
2023-01-07T02:39:36.651Z,26.34
2023-01-07T02:40:36.648Z,26.31
2023-01-07T02:41:36.628Z,26.39
2023-01-07T02:42:36.622Z,26.53
2023-01-07T02:43:36.607Z,26.51
2023-01-07T02:44:36.596Z,26.36
2023-01-07T02:45:36.714Z,26.26
2023-01-07T02:46:36.570Z,26.37
2023-01-07T02:47:36.555Z,26.45
2023-01-07T02:48:36.540Z,26.51
2023-01-07T02:49:36.537Z,26.39
2023-01-07T02:50:36.516Z,26.31
2023-01-07T02:51:36.500Z,26.27
2023-01-07T02:52:36.487Z,26.42
2023-01-07T02:53:36.479Z,26.49
2023-01-07T02:54:36.454Z,26.54
2023-01-07T02:55:36.447Z,26.30
2023-01-07T02:56:36.427Z,26.29
2023-01-07T02:57:36.409Z,26.34
2023-01-07T02:58:36.393Z,26.44
2023-01-07T02:59:36.371Z,26.52
2023-01-07T03:00:36.372Z,26.41
2023-01-07T03:01:36.533Z,26.30
2023-01-07T03:02:36.315Z,26.34
2023-01-07T03:03:36.299Z,26.43
2023-01-07T03:04:36.280Z,26.48
2023-01-07T03:05:36.260Z,26.50
2023-01-07T03:06:36.235Z,26.24
2023-01-07T03:07:36.216Z,26.27
2023-01-07T03:08:36.199Z,26.34
2023-01-07T03:09:36.204Z,26.45
2023-01-07T03:10:36.174Z,26.44
2023-01-07T03:11:36.171Z,26.36
2023-01-07T03:12:36.152Z,26.32
2023-01-07T03:13:36.149Z,26.25
2023-01-07T03:14:36.121Z,26.40
2023-01-07T03:15:36.086Z,26.49
2023-01-07T03:16:36.126Z,26.49
2023-01-07T03:17:36.126Z,26.28
2023-01-07T03:18:36.006Z,26.30
2023-01-07T03:19:35.994Z,26.33
2023-01-07T03:20:35.976Z,26.39
2023-01-07T03:21:35.951Z,26.46
2023-01-07T03:22:35.914Z,26.40
2023-01-07T03:23:35.901Z,26.26
2023-01-07T03:24:35.880Z,26.26
2023-01-07T03:25:35.860Z,26.32
2023-01-07T03:26:35.842Z,26.39
2023-01-07T03:27:35.815Z,26.47
2023-01-07T03:28:35.794Z,26.29
2023-01-07T03:29:35.792Z,26.28
2023-01-07T03:30:35.753Z,26.25
2023-01-07T03:31:35.756Z,26.39
2023-01-07T03:32:35.720Z,26.44
2023-01-07T03:33:35.798Z,26.36
2023-01-07T03:34:35.672Z,26.23
2023-01-07T03:35:35.657Z,26.22
2023-01-07T03:36:35.635Z,26.32
2023-01-07T03:37:35.625Z,26.43
2023-01-07T03:38:35.597Z,26.46
2023-01-07T03:39:35.584Z,26.26
2023-01-07T03:40:35.572Z,26.25
2023-01-07T03:41:35.551Z,26.28
2023-01-07T03:42:35.535Z,26.38
2023-01-07T03:43:35.532Z,26.44
2023-01-07T03:44:35.536Z,26.34
2023-01-07T03:45:35.519Z,26.24
2023-01-07T03:46:35.468Z,26.24
2023-01-07T03:47:35.454Z,26.29
2023-01-07T03:48:35.435Z,26.33
2023-01-07T03:49:35.514Z,26.41
2023-01-07T03:50:35.387Z,26.30
2023-01-07T03:51:35.383Z,26.23
2023-01-07T03:52:35.368Z,26.23
2023-01-07T03:53:35.362Z,26.30
2023-01-07T03:54:35.332Z,26.44
2023-01-07T03:55:35.401Z,26.38
2023-01-07T03:56:35.314Z,26.22
2023-01-07T03:57:35.284Z,26.23
2023-01-07T03:58:35.262Z,26.22
2023-01-07T03:59:35.249Z,26.29
2023-01-07T04:00:35.236Z,26.42
2023-01-07T04:01:35.322Z,26.28
2023-01-07T04:02:35.199Z,26.19
2023-01-07T04:03:35.189Z,26.18
2023-01-07T04:04:35.267Z,26.28
2023-01-07T04:05:35.246Z,26.40
2023-01-07T04:06:35.137Z,26.42
2023-01-07T04:07:35.114Z,26.20
2023-01-07T04:08:35.094Z,26.21
2023-01-07T04:09:35.076Z,26.21
2023-01-07T04:10:35.074Z,26.32
2023-01-07T04:11:35.052Z,26.42
2023-01-07T04:12:35.043Z,26.33
2023-01-07T04:13:35.018Z,26.20
2023-01-07T04:14:35.023Z,26.17
2023-01-07T04:15:35.001Z,26.25
2023-01-07T04:16:35.056Z,26.37
2023-01-07T04:17:34.973Z,26.41
2023-01-07T04:18:34.945Z,26.26
2023-01-07T04:19:34.914Z,26.20
2023-01-07T04:20:34.912Z,26.19
2023-01-07T04:21:34.975Z,26.30
2023-01-07T04:22:34.870Z,26.40
2023-01-07T04:23:34.851Z,26.30
2023-01-07T04:24:34.845Z,26.23
2023-01-07T04:25:34.824Z,26.22
2023-01-07T04:26:34.816Z,26.32
2023-01-07T04:27:34.795Z,26.37
2023-01-07T04:28:34.778Z,26.39
2023-01-07T04:29:34.757Z,26.21
2023-01-07T04:30:34.792Z,26.19
2023-01-07T04:31:34.720Z,26.21
2023-01-07T04:32:34.730Z,26.38
2023-01-07T04:33:34.684Z,26.44
2023-01-07T04:34:34.680Z,26.29
2023-01-07T04:35:34.659Z,26.24
2023-01-07T04:36:34.631Z,26.20
2023-01-07T04:37:34.708Z,26.29
2023-01-07T04:38:34.606Z,26.34
2023-01-07T04:39:34.578Z,26.36
2023-01-07T04:40:34.581Z,26.20
2023-01-07T04:41:34.547Z,26.22
2023-01-07T04:42:34.535Z,26.23
2023-01-07T04:43:34.506Z,26.32
2023-01-07T04:44:34.486Z,26.42
2023-01-07T04:45:34.482Z,26.19
2023-01-07T04:46:34.512Z,26.16
2023-01-07T04:47:34.432Z,26.21
2023-01-07T04:48:34.422Z,26.34
2023-01-07T04:49:34.389Z,26.39
2023-01-07T04:50:34.379Z,26.40
2023-01-07T04:51:34.352Z,26.17
2023-01-07T04:52:34.330Z,26.21
2023-01-07T04:53:34.415Z,26.30
2023-01-07T04:54:34.326Z,26.40
2023-01-07T04:55:34.273Z,26.42
2023-01-07T04:56:34.264Z,26.25
2023-01-07T04:57:34.242Z,26.20
2023-01-07T04:58:34.226Z,26.22
2023-01-07T04:59:34.219Z,26.31
2023-01-07T05:00:34.193Z,26.40
2023-01-07T05:01:34.376Z,26.38
2023-01-07T05:02:34.160Z,26.17
2023-01-07T05:03:34.140Z,26.17
2023-01-07T05:04:34.172Z,26.24
2023-01-07T05:05:34.117Z,26.30
2023-01-07T05:06:34.084Z,26.38
2023-01-07T05:07:34.074Z,26.20
2023-01-07T05:08:34.055Z,26.18
2023-01-07T05:09:34.116Z,26.13
2023-01-07T05:10:34.030Z,26.23
2023-01-07T05:11:34.007Z,26.32
2023-01-07T05:12:33.977Z,26.39
2023-01-07T05:13:33.964Z,26.19
2023-01-07T05:14:33.943Z,26.17
2023-01-07T05:15:33.925Z,26.21
2023-01-07T05:16:33.988Z,26.32
2023-01-07T05:17:33.891Z,26.38
2023-01-07T05:18:33.887Z,26.23
2023-01-07T05:19:34.849Z,26.20
2023-01-07T05:20:33.859Z,26.20
2023-01-07T05:21:33.843Z,26.27
2023-01-07T05:22:33.836Z,26.40
2023-01-07T05:23:33.808Z,26.38
2023-01-07T05:24:33.799Z,26.17
2023-01-07T05:25:33.866Z,26.19
2023-01-07T05:26:33.757Z,26.23
2023-01-07T05:27:33.743Z,26.34
2023-01-07T05:28:33.722Z,26.42
2023-01-07T05:29:33.700Z,26.26
2023-01-07T05:30:33.702Z,26.24
2023-01-07T05:31:33.682Z,26.25
2023-01-07T05:32:33.658Z,26.37
2023-01-07T05:33:33.622Z,26.43
2023-01-07T05:34:33.598Z,26.33
2023-01-07T05:35:33.584Z,26.23
2023-01-07T05:36:33.562Z,26.20
2023-01-07T05:37:33.537Z,26.28
2023-01-07T05:38:33.538Z,26.38
2023-01-07T05:39:33.498Z,26.41
2023-01-07T05:40:33.481Z,26.22
2023-01-07T05:41:33.559Z,26.19
2023-01-07T05:42:33.449Z,26.24
2023-01-07T05:43:33.427Z,26.37
2023-01-07T05:44:33.417Z,26.41
2023-01-07T05:45:33.392Z,26.30
2023-01-07T05:46:33.447Z,26.18
2023-01-07T05:47:33.354Z,26.27
2023-01-07T05:48:33.342Z,26.33
2023-01-07T05:49:33.341Z,26.40
2023-01-07T05:50:33.310Z,26.42
2023-01-07T05:51:33.301Z,26.44
2023-01-07T05:52:33.269Z,26.44
2023-01-07T05:53:33.253Z,26.45
2023-01-07T05:54:33.241Z,26.45
2023-01-07T05:55:33.212Z,26.49
2023-01-07T05:56:33.195Z,26.25
2023-01-07T05:57:33.280Z,26.32
2023-01-07T05:58:33.160Z,26.38
2023-01-07T05:59:33.146Z,26.45
2023-01-07T06:00:33.128Z,26.49
2023-01-07T06:01:33.162Z,26.40
2023-01-07T06:02:33.093Z,26.28
2023-01-07T06:03:33.110Z,26.35
2023-01-07T06:04:33.097Z,26.36
2023-01-07T06:05:33.054Z,26.49
2023-01-07T06:06:33.023Z,26.45
2023-01-07T06:07:32.998Z,26.31
2023-01-07T06:08:32.985Z,26.36
2023-01-07T06:09:32.964Z,26.36
2023-01-07T06:10:32.946Z,26.42
2023-01-07T06:11:32.927Z,26.45
2023-01-07T06:12:32.904Z,26.30
2023-01-07T06:13:32.896Z,26.31
2023-01-07T06:14:32.877Z,26.32
2023-01-07T06:15:32.869Z,26.44
2023-01-07T06:16:32.836Z,26.47
2023-01-07T06:17:32.811Z,26.35
2023-01-07T06:18:32.890Z,26.28
2023-01-07T06:19:32.779Z,26.31
2023-01-07T06:20:32.764Z,26.39
2023-01-07T06:21:32.736Z,26.50
2023-01-07T06:22:32.726Z,26.41
2023-01-07T06:23:32.707Z,26.29
2023-01-07T06:24:32.678Z,26.25
2023-01-07T06:25:32.670Z,26.33
2023-01-07T06:26:32.646Z,26.40
2023-01-07T06:27:32.631Z,26.43
2023-01-07T06:28:32.613Z,26.32
2023-01-07T06:29:32.681Z,26.25
2023-01-07T06:30:32.590Z,26.26
2023-01-07T06:31:32.746Z,26.37
2023-01-07T06:32:32.546Z,26.41
2023-01-07T06:33:33.597Z,26.32
2023-01-07T06:34:32.517Z,26.21
2023-01-07T06:35:32.487Z,26.25
2023-01-07T06:36:32.473Z,26.32
2023-01-07T06:37:32.451Z,26.37
2023-01-07T06:38:32.434Z,26.43
2023-01-07T06:39:32.406Z,26.25
2023-01-07T06:40:32.397Z,26.23
2023-01-07T06:41:32.366Z,26.23
2023-01-07T06:42:32.355Z,26.38
2023-01-07T06:43:32.328Z,26.41
2023-01-07T06:44:32.315Z,26.31
2023-01-07T06:45:32.390Z,26.21
2023-01-07T06:46:32.285Z,26.25
2023-01-07T06:47:32.260Z,26.34
2023-01-07T06:48:32.239Z,26.39
2023-01-07T06:49:32.229Z,26.44
2023-01-07T06:50:32.215Z,26.25
2023-01-07T06:51:32.186Z,26.23
2023-01-07T06:52:32.170Z,26.30
2023-01-07T06:53:32.150Z,26.34
2023-01-07T06:54:32.138Z,26.34
2023-01-07T06:55:32.122Z,26.30
2023-01-07T06:56:32.088Z,26.21
2023-01-07T06:57:32.068Z,26.18
2023-01-07T06:58:32.060Z,26.29
2023-01-07T06:59:32.035Z,26.40
2023-01-07T07:00:32.015Z,26.37
2023-01-07T07:01:32.198Z,26.22
2023-01-07T07:02:32.127Z,26.18
2023-01-07T07:03:31.946Z,26.24
2023-01-07T07:04:31.926Z,26.39
2023-01-07T07:05:31.913Z,26.41
2023-01-07T07:06:31.888Z,26.22
2023-01-07T07:07:31.850Z,26.19
2023-01-07T07:08:31.828Z,26.21
2023-01-07T07:09:31.796Z,26.31
2023-01-07T07:10:31.782Z,26.40
2023-01-07T07:11:31.751Z,26.30
2023-01-07T07:12:31.719Z,26.19
2023-01-07T07:13:31.693Z,26.21
2023-01-07T07:14:31.674Z,26.30
2023-01-07T07:15:31.692Z,26.41
2023-01-07T07:16:32.794Z,26.39
2023-01-07T07:17:31.699Z,26.19
2023-01-07T07:18:31.589Z,26.17
2023-01-07T07:19:31.560Z,26.28
2023-01-07T07:20:31.539Z,26.41
2023-01-07T07:21:31.517Z,26.42
2023-01-07T07:22:31.502Z,26.25
2023-01-07T07:23:31.462Z,26.22
2023-01-07T07:24:31.474Z,26.20
2023-01-07T07:25:31.430Z,26.32
2023-01-07T07:26:31.409Z,26.34
2023-01-07T07:27:31.375Z,26.29
2023-01-07T07:28:31.372Z,26.19
2023-01-07T07:29:31.338Z,26.23
2023-01-07T07:30:47.064Z,26.30
2023-01-07T07:31:32.323Z,26.37
2023-01-07T07:32:31.269Z,26.36
2023-01-07T07:33:31.349Z,26.19
2023-01-07T07:34:31.220Z,26.18
2023-01-07T07:35:31.205Z,26.22
2023-01-07T07:36:31.184Z,26.33
2023-01-07T07:37:31.163Z,26.37
2023-01-07T07:38:31.135Z,26.25
2023-01-07T07:39:31.114Z,26.17
2023-01-07T07:40:31.094Z,26.16
2023-01-07T07:41:31.071Z,26.23
2023-01-07T07:42:31.052Z,26.35
2023-01-07T07:43:31.019Z,26.38
2023-01-07T07:44:30.998Z,26.17
2023-01-07T07:45:30.974Z,26.15
2023-01-07T07:46:30.977Z,26.19
2023-01-07T07:47:30.928Z,26.24
2023-01-07T07:48:30.920Z,26.35
2023-01-07T07:49:31.002Z,26.18
2023-01-07T07:50:30.881Z,26.15
2023-01-07T07:51:30.856Z,26.16
2023-01-07T07:52:30.840Z,26.29
2023-01-07T07:53:30.824Z,26.33
2023-01-07T07:54:30.803Z,26.24
2023-01-07T07:55:30.789Z,26.10
2023-01-07T07:56:30.768Z,26.17
2023-01-07T07:57:30.743Z,26.17
2023-01-07T07:58:30.731Z,26.29
2023-01-07T07:59:30.709Z,26.29
2023-01-07T08:00:30.702Z,26.13
2023-01-07T08:01:30.759Z,26.10
2023-01-07T08:02:30.698Z,26.16
2023-01-07T08:03:30.761Z,26.23
2023-01-07T08:04:30.621Z,26.27
2023-01-07T08:05:30.699Z,26.19
2023-01-07T08:06:30.592Z,26.08
2023-01-07T08:07:32.733Z,26.12
2023-01-07T08:08:30.551Z,26.18
2023-01-07T08:09:30.543Z,26.27
2023-01-07T08:10:30.523Z,26.29
2023-01-07T08:11:30.500Z,26.14
2023-01-07T08:12:30.480Z,26.13
2023-01-07T08:13:30.447Z,26.18
2023-01-07T08:14:30.429Z,26.28
2023-01-07T08:15:30.403Z,26.30
2023-01-07T08:16:30.441Z,26.16
2023-01-07T08:17:30.363Z,26.07
2023-01-07T08:18:30.335Z,26.10
2023-01-07T08:19:30.321Z,26.21
2023-01-07T08:20:30.297Z,26.31
2023-01-07T08:21:30.381Z,26.20
2023-01-07T08:22:30.270Z,26.05
2023-01-07T08:23:30.348Z,26.09
2023-01-07T08:24:30.224Z,26.19
2023-01-07T08:25:30.215Z,26.24
2023-01-07T08:26:30.198Z,26.28
2023-01-07T08:27:30.183Z,26.09
2023-01-07T08:28:30.162Z,26.06
2023-01-07T08:29:30.141Z,26.10
2023-01-07T08:30:30.174Z,26.19
2023-01-07T08:31:30.137Z,26.27
2023-01-07T08:32:30.100Z,26.31
2023-01-07T08:33:30.073Z,26.32
2023-01-07T08:34:30.055Z,26.31
2023-01-07T08:35:30.034Z,26.28
2023-01-07T08:36:30.006Z,26.31
2023-01-07T08:37:29.995Z,26.33
2023-01-07T08:38:29.976Z,26.33
2023-01-07T08:39:29.962Z,26.35
2023-01-07T08:40:29.963Z,26.37
2023-01-07T08:41:29.911Z,26.39
2023-01-07T08:42:29.899Z,26.37
2023-01-07T08:43:29.883Z,26.40
2023-01-07T08:44:29.856Z,26.43
2023-01-07T08:45:29.849Z,26.44
2023-01-07T08:46:29.885Z,26.46
2023-01-07T08:47:29.812Z,26.47
2023-01-07T08:48:29.788Z,26.48
2023-01-07T08:49:29.770Z,26.50
2023-01-07T08:50:29.791Z,26.50
2023-01-07T08:51:29.724Z,26.49
2023-01-07T08:52:29.715Z,26.54
2023-01-07T08:53:29.794Z,26.53
2023-01-07T08:54:29.674Z,26.52
2023-01-07T08:55:29.660Z,26.56
2023-01-07T08:56:29.655Z,26.59
2023-01-07T08:57:29.627Z,26.58
2023-01-07T08:58:29.622Z,26.59
2023-01-07T08:59:29.593Z,26.60
2023-01-07T09:00:29.592Z,26.59
2023-01-07T09:01:29.691Z,26.59
2023-01-07T09:02:29.569Z,26.57
2023-01-07T09:03:29.513Z,26.59
2023-01-07T09:04:29.504Z,26.59
2023-01-07T09:05:29.480Z,26.63
2023-01-07T09:06:29.470Z,26.62
2023-01-07T09:07:29.460Z,26.62
2023-01-07T09:08:29.509Z,26.65
2023-01-07T09:09:29.512Z,26.65
2023-01-07T09:10:29.405Z,26.70
2023-01-07T09:11:29.383Z,26.66
2023-01-07T09:12:29.369Z,26.63
2023-01-07T09:13:29.348Z,26.67
2023-01-07T09:14:29.328Z,26.66
2023-01-07T09:15:29.326Z,26.68
2023-01-07T09:16:29.358Z,26.73
2023-01-07T09:17:29.296Z,26.70
2023-01-07T09:18:29.265Z,26.70
2023-01-07T09:19:29.248Z,26.68
2023-01-07T09:20:29.227Z,26.69
2023-01-07T09:21:29.210Z,26.66
2023-01-07T09:22:29.186Z,26.67
2023-01-07T09:23:29.174Z,26.68
2023-01-07T09:24:29.170Z,26.73
2023-01-07T09:25:29.235Z,26.74
2023-01-07T09:26:29.123Z,26.75
2023-01-07T09:27:29.118Z,26.72
2023-01-07T09:28:29.098Z,26.69
2023-01-07T09:29:29.092Z,26.71
2023-01-07T09:30:29.060Z,26.70
2023-01-07T09:31:29.064Z,26.65
2023-01-07T09:32:29.028Z,26.64
2023-01-07T09:33:29.013Z,26.64
2023-01-07T09:34:28.997Z,26.65
2023-01-07T09:35:28.997Z,26.63
2023-01-07T09:36:28.970Z,26.67
2023-01-07T09:37:28.955Z,26.63
2023-01-07T09:38:28.963Z,26.64
2023-01-07T09:39:28.923Z,26.66
2023-01-07T09:40:28.899Z,26.66
2023-01-07T09:41:28.968Z,26.62
2023-01-07T09:42:28.862Z,26.63
2023-01-07T09:43:58.873Z,26.65
2023-01-07T09:44:28.827Z,26.68
2023-01-07T09:45:28.822Z,26.66
2023-01-07T09:46:28.789Z,26.69
2023-01-07T09:47:28.776Z,26.65
2023-01-07T09:48:28.748Z,26.63
2023-01-07T09:49:28.737Z,26.66
2023-01-07T09:50:28.716Z,26.67
2023-01-07T09:51:28.693Z,26.66
2023-01-07T09:52:28.670Z,26.65
2023-01-07T09:53:28.662Z,26.63
2023-01-07T09:54:28.639Z,26.66
2023-01-07T09:55:28.606Z,26.65
2023-01-07T09:56:28.586Z,26.67
2023-01-07T09:57:28.673Z,26.65
2023-01-07T09:58:28.534Z,26.64
2023-01-07T09:59:28.527Z,26.64
2023-01-07T10:00:28.494Z,26.68
2023-01-07T10:01:28.526Z,26.65
2023-01-07T10:02:28.483Z,26.60
2023-01-07T10:03:28.416Z,26.65
2023-01-07T10:04:28.404Z,26.58
2023-01-07T10:05:28.365Z,26.61
2023-01-07T10:06:42.277Z,26.63
2023-01-07T10:07:28.319Z,26.60
2023-01-07T10:08:30.837Z,26.60
2023-01-07T10:09:28.280Z,26.49
2023-01-07T10:10:28.250Z,26.58
2023-01-07T10:11:28.232Z,26.63
2023-01-07T10:12:28.194Z,26.64
2023-01-07T10:13:28.263Z,26.65
2023-01-07T10:14:28.169Z,26.65
2023-01-07T10:15:28.139Z,26.64
2023-01-07T10:16:28.140Z,26.68
2023-01-07T10:17:28.098Z,26.65
2023-01-07T10:18:28.077Z,26.64
2023-01-07T10:19:28.062Z,26.65
2023-01-07T10:20:28.035Z,26.63
2023-01-07T10:21:28.004Z,26.63
2023-01-07T10:22:27.985Z,26.63
2023-01-07T10:23:27.968Z,26.63
2023-01-07T10:24:27.947Z,26.64
2023-01-07T10:25:27.916Z,26.63
2023-01-07T10:26:27.892Z,26.61
2023-01-07T10:27:27.876Z,26.64
2023-01-07T10:28:27.861Z,26.64
2023-01-07T10:29:27.920Z,26.64
2023-01-07T10:30:27.810Z,26.64
2023-01-07T10:31:27.819Z,26.68
2023-01-07T10:32:27.758Z,26.67
2023-01-07T10:33:27.734Z,26.66
2023-01-07T10:34:27.719Z,26.69
2023-01-07T10:35:27.715Z,26.68
2023-01-07T10:36:27.667Z,26.69
2023-01-07T10:37:27.644Z,26.71
2023-01-07T10:38:27.626Z,26.71
2023-01-07T10:39:27.619Z,26.70
2023-01-07T10:40:27.572Z,26.70
2023-01-07T10:41:27.568Z,26.69
2023-01-07T10:42:27.537Z,26.72
2023-01-07T10:43:27.511Z,26.73
2023-01-07T10:44:27.482Z,26.72
2023-01-07T10:45:27.587Z,26.72
2023-01-07T10:46:27.442Z,26.69
2023-01-07T10:47:27.417Z,26.69
2023-01-07T10:48:27.390Z,26.70
2023-01-07T10:49:27.368Z,26.69
2023-01-07T10:50:27.344Z,26.68
2023-01-07T10:51:27.332Z,26.69
2023-01-07T10:52:27.293Z,26.68
2023-01-07T10:53:27.279Z,26.67
2023-01-07T10:54:27.245Z,26.68
2023-01-07T10:55:27.230Z,26.69
2023-01-07T10:56:27.200Z,26.69
2023-01-07T10:57:27.179Z,26.69
2023-01-07T10:58:27.156Z,26.70
2023-01-07T10:59:27.132Z,26.69
2023-01-07T11:00:27.144Z,26.68
2023-01-07T11:01:27.350Z,26.67
2023-01-07T11:02:27.339Z,26.68
2023-01-07T11:03:27.040Z,26.69
2023-01-07T11:04:27.018Z,26.68
2023-01-07T11:05:27.005Z,26.69
2023-01-07T11:06:26.975Z,26.67
2023-01-07T11:07:26.955Z,26.70
2023-01-07T11:08:26.930Z,26.68
2023-01-07T11:09:26.914Z,26.68
2023-01-07T11:10:26.901Z,26.69
2023-01-07T11:11:26.873Z,26.67
2023-01-07T11:12:26.850Z,26.67
2023-01-07T11:13:26.828Z,26.64
2023-01-07T11:14:26.814Z,26.63
2023-01-07T11:15:26.801Z,26.65
2023-01-07T11:16:26.830Z,26.65
2023-01-07T11:17:26.841Z,26.66
2023-01-07T11:18:26.724Z,26.64
2023-01-07T11:19:26.704Z,26.65
2023-01-07T11:20:26.719Z,26.64
2023-01-07T11:21:43.337Z,26.65
2023-01-07T11:22:27.629Z,26.65
2023-01-07T11:23:26.617Z,26.64
2023-01-07T11:24:26.598Z,26.65
2023-01-07T11:25:26.601Z,26.65
2023-01-07T11:26:26.555Z,26.66
2023-01-07T11:27:26.531Z,26.66
2023-01-07T11:28:26.502Z,26.67
2023-01-07T11:29:26.468Z,26.63
2023-01-07T11:30:26.447Z,26.62
2023-01-07T11:31:26.431Z,26.62
2023-01-07T11:32:26.442Z,26.66
2023-01-07T11:34:01.451Z,26.68
2023-01-07T11:34:27.353Z,26.68
2023-01-07T11:35:26.332Z,26.66
2023-01-07T11:36:26.318Z,26.66
2023-01-07T11:37:26.325Z,26.67
2023-01-07T11:38:26.271Z,26.68
2023-01-07T11:39:26.271Z,26.68
2023-01-07T11:40:26.232Z,26.71
2023-01-07T11:41:26.222Z,26.70
2023-01-07T11:42:26.202Z,26.70
2023-01-07T11:43:26.170Z,26.71
2023-01-07T11:44:26.141Z,26.71
2023-01-07T11:45:26.215Z,26.71
2023-01-07T11:46:27.115Z,26.75
2023-01-07T11:47:26.094Z,26.75
2023-01-07T11:48:26.064Z,26.73
2023-01-07T11:49:26.153Z,26.71
2023-01-07T11:50:26.020Z,26.73
2023-01-07T11:51:26.008Z,26.73
2023-01-07T11:52:25.978Z,26.73
2023-01-07T11:53:25.941Z,26.75
2023-01-07T11:54:25.924Z,26.74
2023-01-07T11:55:25.916Z,26.75
2023-01-07T11:56:25.877Z,26.77
2023-01-07T11:57:25.852Z,26.74
2023-01-07T11:58:29.955Z,26.79
2023-01-07T11:59:25.803Z,26.80
2023-01-07T12:00:25.776Z,26.80
2023-01-07T12:01:25.823Z,26.80
2023-01-07T12:02:25.910Z,26.82
2023-01-07T12:03:25.755Z,26.83
2023-01-07T12:04:25.682Z,26.83
2023-01-07T12:05:25.756Z,26.84
2023-01-07T12:06:25.661Z,26.86
2023-01-07T12:07:25.625Z,26.84
2023-01-07T12:08:25.602Z,26.85
2023-01-07T12:09:25.585Z,26.86
2023-01-07T12:10:25.577Z,26.85
2023-01-07T12:11:25.559Z,26.89
2023-01-07T12:12:25.540Z,26.87
2023-01-07T12:13:25.530Z,26.88
2023-01-07T12:14:25.499Z,26.90
2023-01-07T12:15:25.480Z,26.93
2023-01-07T12:16:25.516Z,26.93
2023-01-07T12:17:25.454Z,26.94
2023-01-07T12:18:25.430Z,26.94
2023-01-07T12:19:25.410Z,26.96
2023-01-07T13:08:24.249Z,27.11
2023-01-07T13:09:24.221Z,27.13
2023-01-07T13:10:24.196Z,27.12
2023-01-07T13:11:24.175Z,27.15
2023-01-07T13:12:41.075Z,27.12
2023-01-07T13:14:24.111Z,27.15
2023-01-07T13:15:24.090Z,27.15
2023-01-07T13:16:24.089Z,27.17
2023-01-07T13:17:24.030Z,27.16
2023-01-07T13:18:24.019Z,27.17
2023-01-07T13:19:23.985Z,27.14
2023-01-07T13:20:23.973Z,27.15
2023-01-07T13:21:23.964Z,27.19
2023-01-07T13:22:23.922Z,27.24
2023-01-07T13:23:23.902Z,27.26
2023-01-07T13:24:55.226Z,27.25
2023-01-07T13:26:23.839Z,27.24
2023-01-07T13:27:23.795Z,27.25
2023-01-07T13:28:23.778Z,27.22
2023-01-07T13:29:24.452Z,27.21
2023-01-07T13:30:23.723Z,27.25
2023-01-07T13:31:23.784Z,27.21
2023-01-07T13:32:23.715Z,27.22
2023-01-07T13:33:23.661Z,27.19
2023-01-07T13:34:23.643Z,27.19
2023-01-07T13:35:23.624Z,27.17
2023-01-07T13:36:23.620Z,27.15
2023-01-07T13:37:23.610Z,27.14
2023-01-07T13:38:23.543Z,27.15
2023-01-07T13:39:23.519Z,27.15
2023-01-07T13:40:23.505Z,27.14
2023-01-07T13:41:23.578Z,27.13
2023-01-07T13:42:23.457Z,27.12
2023-01-07T13:43:23.428Z,27.16